createdAt,value
2023-02-09T00:00:30.721Z,6.87
2023-02-09T00:04:38.015Z,6.93
2023-02-09T00:08:44.342Z,8.90
2023-02-09T00:13:04.928Z,7.40
2023-02-09T00:17:11.861Z,8.60
2023-02-09T00:21:17.390Z,8.63
2023-02-09T00:25:27.488Z,9.20
2023-02-09T00:29:31.029Z,8.63
2023-02-09T00:33:34.174Z,8.60
2023-02-09T00:37:39.070Z,9.07
2023-02-09T00:42:00.074Z,8.90
2023-02-09T00:46:06.434Z,9.27
2023-02-09T00:50:15.515Z,7.53
2023-02-09T00:54:28.544Z,8.97
2023-02-09T00:58:32.082Z,9.80
2023-02-09T01:02:38.981Z,8.03
2023-02-09T01:06:46.424Z,9.60
2023-02-09T01:10:58.657Z,10.20
2023-02-09T01:15:04.103Z,10.47
2023-02-09T01:19:13.850Z,10.13
2023-02-09T01:23:18.649Z,8.40
2023-02-09T01:27:26.362Z,9.87
2023-02-09T01:31:35.543Z,9.87
2023-02-09T01:35:43.730Z,8.57
2023-02-09T01:39:50.746Z,10.93
2023-02-09T01:43:58.728Z,18.23
2023-02-09T01:48:04.804Z,10.53
2023-02-09T01:52:12.679Z,11.50
2023-02-09T01:56:26.089Z,11.43
2023-02-09T02:00:30.954Z,12.70
2023-02-09T02:04:35.393Z,12.37
2023-02-09T02:08:46.256Z,9.43
2023-02-09T02:12:51.942Z,10.23
2023-02-09T02:17:09.646Z,11.80
2023-02-09T02:21:37.671Z,11.10
2023-02-09T02:26:12.700Z,12.30
2023-02-09T02:30:40.243Z,10.50
2023-02-09T02:34:48.877Z,13.43
2023-02-09T02:38:58.194Z,12.87
2023-02-09T02:43:14.821Z,11.30
2023-02-09T02:47:21.579Z,12.87
2023-02-09T02:51:33.745Z,13.57
2023-02-09T02:55:41.599Z,13.37
2023-02-09T02:59:55.009Z,11.83
2023-02-09T03:04:02.518Z,10.83
2023-02-09T03:08:18.293Z,11.60
2023-02-09T03:12:33.604Z,14.77
2023-02-09T03:16:47.021Z,12.33
2023-02-09T03:20:53.866Z,13.53
2023-02-09T03:25:09.514Z,12.73
2023-02-09T03:29:21.223Z,11.63
2023-02-09T03:33:28.532Z,11.40
2023-02-09T03:37:34.919Z,14.50
2023-02-09T03:41:42.270Z,12.70
2023-02-09T03:45:49.859Z,13.73
2023-02-09T03:49:55.465Z,13.20
2023-02-09T03:53:59.681Z,12.23
2023-02-09T03:58:07.999Z,14.43
2023-02-09T04:02:12.123Z,16.70
2023-02-09T04:06:16.534Z,13.93
2023-02-09T04:10:25.346Z,15.83
2023-02-09T04:14:33.071Z,12.03
2023-02-09T04:18:37.534Z,12.47
2023-02-09T04:22:45.509Z,15.50
2023-02-09T04:26:50.315Z,16.27
2023-02-09T04:30:57.445Z,14.03
2023-02-09T04:35:03.868Z,15.10
2023-02-09T04:39:07.986Z,14.13
2023-02-09T04:43:15.472Z,13.37
2023-02-09T04:47:20.801Z,16.53
2023-02-09T04:51:28.056Z,16.23
2023-02-09T04:55:34.384Z,15.53
2023-02-09T04:59:43.711Z,16.50
2023-02-09T05:03:48.923Z,16.00
2023-02-09T05:07:54.066Z,13.63
2023-02-09T05:12:01.653Z,16.30
2023-02-09T05:16:16.329Z,16.50
2023-02-09T05:20:22.991Z,16.63
2023-02-09T05:24:26.280Z,16.27
2023-02-09T05:28:31.678Z,18.50
2023-02-09T05:32:35.012Z,18.40
2023-02-09T05:36:57.206Z,14.20
2023-02-09T05:41:06.814Z,18.57
2023-02-09T05:45:11.863Z,15.50
2023-02-09T05:49:14.755Z,17.90
2023-02-09T05:53:18.963Z,17.50
2023-02-09T05:57:21.816Z,18.27
2023-02-09T06:01:24.638Z,17.00
2023-02-09T06:05:28.086Z,17.27
2023-02-09T06:09:32.252Z,19.00
2023-02-09T06:13:35.158Z,18.50
2023-02-09T06:17:38.374Z,17.60
2023-02-09T06:21:41.362Z,17.83
2023-02-09T06:25:45.489Z,18.57
2023-02-09T06:29:48.286Z,20.00
2023-02-09T06:33:51.142Z,18.27
2023-02-09T06:37:57.661Z,15.67
2023-02-09T06:42:01.841Z,18.10
2023-02-09T06:46:08.671Z,17.10
2023-02-09T06:50:13.135Z,19.27
2023-02-09T06:54:16.099Z,18.67
2023-02-09T06:58:20.280Z,18.67
2023-02-09T07:02:23.187Z,17.33
2023-02-09T07:06:26.095Z,17.83
2023-02-09T07:10:28.959Z,19.20
2023-02-09T07:14:33.211Z,19.43
2023-02-09T07:18:36.957Z,18.53
2023-02-09T07:22:39.764Z,17.87
2023-02-09T07:26:42.741Z,30.00
2023-02-09T07:30:48.610Z,19.60
2023-02-09T07:34:51.927Z,20.10
2023-02-09T07:38:56.222Z,18.53
2023-02-09T07:42:59.273Z,21.37
2023-02-09T07:47:03.482Z,19.37
2023-02-09T07:51:07.140Z,19.60
2023-02-09T07:55:09.960Z,19.53
2023-02-09T07:59:12.839Z,19.13
2023-02-09T08:03:19.757Z,19.33
2023-02-09T08:07:22.839Z,24.93
2023-02-09T08:11:30.176Z,15.77
2023-02-09T08:15:43.690Z,19.93
2023-02-09T08:19:52.197Z,20.93
2023-02-09T08:23:58.298Z,23.00
2023-02-09T08:28:02.262Z,20.63
2023-02-09T08:32:05.849Z,22.93
2023-02-09T08:36:11.541Z,19.00
2023-02-09T08:40:15.729Z,22.93
2023-02-09T08:44:18.574Z,19.43
2023-02-09T08:48:21.362Z,21.73
2023-02-09T08:52:25.790Z,22.23
2023-02-09T08:56:28.628Z,22.13
2023-02-09T09:00:32.222Z,21.77
2023-02-09T09:04:35.048Z,19.10
2023-02-09T09:08:40.781Z,18.80
2023-02-09T09:12:44.852Z,16.37
2023-02-09T09:16:47.760Z,18.17
2023-02-09T09:20:50.704Z,17.87
2023-02-09T09:24:55.341Z,20.33
2023-02-09T09:28:58.242Z,18.33
2023-02-09T09:33:01.201Z,15.90
2023-02-09T09:37:04.065Z,18.00
2023-02-09T09:41:19.913Z,16.27
2023-02-09T09:45:26.168Z,19.23
2023-02-09T09:49:32.487Z,15.77
2023-02-09T09:53:37.893Z,71.67
2023-02-09T09:57:45.318Z,16.97
2023-02-09T10:01:50.208Z,16.33
2023-02-09T10:05:55.343Z,16.93
2023-02-09T10:10:04.348Z,17.87
2023-02-09T10:14:11.029Z,18.93
2023-02-09T10:18:16.996Z,15.63
2023-02-09T10:22:21.920Z,17.70
2023-02-09T10:26:26.318Z,15.50
2023-02-09T10:30:30.859Z,19.57
2023-02-09T10:34:42.303Z,16.10
2023-02-09T10:38:45.205Z,17.90
2023-02-09T10:42:56.987Z,16.70
2023-02-09T10:47:12.705Z,16.10
2023-02-09T10:51:17.288Z,16.83
2023-02-09T10:55:23.892Z,14.87
2023-02-09T10:59:27.039Z,13.93
2023-02-09T11:03:31.411Z,17.00
2023-02-09T11:07:38.455Z,16.73
2023-02-09T11:11:42.760Z,17.63
2023-02-09T11:16:26.736Z,16.47
2023-02-09T11:20:36.955Z,15.87
2023-02-09T11:24:49.385Z,16.60
2023-02-09T11:29:00.007Z,14.50
2023-02-09T11:33:09.488Z,14.93
2023-02-09T11:37:28.912Z,16.33
2023-02-09T11:41:56.300Z,14.30
2023-02-09T11:46:04.563Z,15.07
2023-02-09T11:50:11.535Z,15.57
2023-02-09T11:54:18.565Z,17.03
2023-02-09T11:58:31.934Z,15.87
2023-02-09T12:02:47.420Z,14.93
2023-02-09T12:06:54.781Z,14.60
2023-02-09T12:11:12.731Z,15.27
2023-02-09T12:15:17.729Z,14.03
2023-02-09T12:19:27.093Z,13.70
2023-02-09T12:23:33.428Z,14.57
2023-02-09T12:27:39.003Z,15.13
2023-02-09T12:32:15.458Z,14.70
2023-02-09T12:36:30.777Z,14.80
2023-02-09T12:40:38.191Z,15.40
2023-02-09T12:44:55.145Z,14.17
2023-02-09T12:49:14.464Z,13.47
2023-02-09T12:53:45.221Z,16.93
2023-02-09T12:57:52.114Z,15.93
2023-02-09T13:02:27.279Z,13.73
2023-02-09T13:06:37.502Z,14.90
2023-02-09T13:10:43.844Z,16.40
2023-02-09T13:14:50.968Z,14.03
2023-02-09T13:19:01.968Z,15.87
2023-02-09T13:23:17.858Z,16.80
2023-02-09T13:27:22.927Z,16.60
2023-02-09T13:31:34.665Z,13.67
2023-02-09T13:35:50.770Z,14.40
2023-02-09T13:39:57.613Z,15.63
2023-02-09T13:44:00.562Z,15.17
2023-02-09T13:48:04.803Z,13.80
2023-02-09T13:52:14.967Z,15.40
2023-02-09T13:56:17.888Z,15.63
2023-02-09T14:00:29.280Z,16.27
2023-02-09T14:04:35.966Z,14.53
2023-02-09T14:08:41.600Z,18.90
2023-02-09T14:12:55.853Z,16.47
2023-02-09T14:17:25.273Z,17.10
2023-02-09T14:21:32.556Z,18.33
2023-02-09T14:25:36.877Z,16.20
2023-02-09T14:29:46.805Z,18.37
2023-02-09T14:33:51.896Z,17.00
2023-02-09T14:37:57.202Z,19.43
2023-02-09T14:42:14.822Z,17.67
2023-02-09T14:46:17.633Z,17.27
2023-02-09T14:50:23.454Z,20.60
2023-02-09T14:54:28.170Z,19.63
2023-02-09T14:58:34.896Z,20.43
2023-02-09T15:02:37.791Z,24.30
2023-02-09T15:06:42.299Z,20.50
2023-02-09T15:10:47.869Z,18.40
2023-02-09T15:14:54.952Z,20.07
2023-02-09T15:18:57.875Z,21.37
2023-02-09T15:23:01.951Z,19.57
2023-02-09T15:27:04.930Z,19.70
2023-02-09T15:31:14.436Z,18.47
2023-02-09T15:35:20.486Z,19.60
2023-02-09T15:39:25.177Z,19.83
2023-02-09T15:43:45.797Z,23.07
2023-02-09T15:47:50.021Z,19.80
2023-02-09T15:51:52.938Z,19.67
2023-02-09T15:55:58.749Z,19.63
2023-02-09T16:00:01.696Z,16.87
2023-02-09T16:04:14.023Z,21.80
2023-02-09T16:08:20.949Z,20.73
2023-02-09T16:12:23.825Z,19.13
2023-02-09T16:16:27.832Z,18.17
2023-02-09T16:20:32.527Z,21.70
2023-02-09T16:24:39.878Z,20.40
2023-02-09T16:28:42.715Z,22.37
2023-02-09T16:32:45.835Z,20.33
2023-02-09T16:36:50.661Z,23.63
2023-02-09T16:40:55.115Z,17.47
2023-02-09T16:44:58.227Z,18.50
2023-02-09T16:49:02.462Z,36.40
2023-02-09T16:53:18.673Z,22.43
2023-02-09T16:57:24.064Z,25.63
2023-02-09T17:01:26.944Z,21.03
2023-02-09T17:05:32.548Z,21.43
2023-02-09T17:09:36.801Z,21.80
2023-02-09T17:13:39.957Z,35.77
2023-02-09T17:17:48.025Z,24.33
2023-02-09T17:21:50.830Z,21.73
2023-02-09T17:25:55.964Z,21.27
2023-02-09T17:29:58.783Z,21.07
2023-02-09T17:34:04.025Z,22.80
2023-02-09T17:38:07.673Z,25.73
2023-02-09T17:42:21.810Z,24.00
2023-02-09T17:46:25.019Z,24.27
2023-02-09T17:50:27.932Z,26.83
2023-02-09T17:54:32.510Z,28.97
2023-02-09T17:58:36.659Z,25.50
2023-02-09T18:02:39.522Z,29.83
2023-02-09T18:06:42.664Z,26.40
2023-02-09T18:10:45.870Z,31.90
2023-02-09T18:14:50.048Z,27.37
2023-02-09T18:18:53.056Z,30.30
2023-02-09T18:22:56.497Z,27.40
2023-02-09T18:26:59.683Z,36.30
2023-02-09T18:31:06.353Z,30.77
2023-02-09T18:35:11.654Z,32.80
2023-02-09T18:39:16.282Z,32.07
2023-02-09T18:43:19.083Z,31.93
2023-02-09T18:47:23.508Z,30.83
2023-02-09T18:51:26.388Z,36.60
2023-02-09T18:55:32.011Z,34.30
2023-02-09T18:59:34.876Z,28.70
2023-02-09T19:03:39.145Z,35.30
2023-02-09T19:07:42.354Z,29.43
2023-02-09T19:11:45.266Z,30.63
2023-02-09T19:15:48.414Z,29.87
2023-02-09T19:19:52.953Z,28.93
2023-02-09T19:23:55.976Z,31.23
2023-02-09T19:27:58.888Z,33.07
2023-02-09T19:32:02.945Z,30.00
2023-02-09T19:36:08.100Z,32.93
2023-02-09T19:40:20.884Z,40.43
2023-02-09T19:44:23.714Z,40.53
2023-02-09T19:48:26.528Z,41.93
2023-02-09T19:52:30.956Z,37.07
2023-02-09T19:56:33.735Z,36.33
2023-02-09T20:00:36.569Z,37.43
2023-02-09T20:04:39.579Z,38.57
2023-02-09T20:08:44.306Z,43.20
2023-02-09T20:12:47.462Z,49.00
2023-02-09T20:16:50.311Z,46.27
2023-02-09T20:20:53.173Z,38.13
2023-02-09T20:24:57.374Z,32.40
2023-02-09T20:29:00.464Z,41.63
2023-02-09T20:33:03.468Z,35.83
2023-02-09T20:37:06.285Z,43.57
2023-02-09T20:41:11.103Z,39.93
2023-02-09T20:45:33.017Z,37.23
2023-02-09T20:49:37.049Z,38.37
2023-02-09T20:53:39.868Z,33.63
2023-02-09T20:57:44.473Z,36.87
2023-02-09T21:01:48.019Z,39.27
2023-02-09T21:05:50.865Z,39.07
2023-02-09T21:09:55.802Z,38.77
2023-02-09T21:14:01.157Z,39.77
2023-02-09T21:18:06.557Z,41.40
2023-02-09T21:22:09.666Z,42.83
2023-02-09T21:26:14.321Z,45.57
2023-02-09T21:30:18.625Z,37.30
2023-02-09T21:34:21.490Z,40.23
2023-02-09T21:38:25.171Z,39.37
2023-02-09T21:42:28.704Z,40.77
2023-02-09T21:46:33.737Z,42.17
2023-02-09T21:50:36.536Z,45.40
2023-02-09T21:54:39.393Z,49.73
2023-02-09T21:58:42.559Z,43.80
2023-02-09T22:02:53.025Z,42.57
2023-02-09T22:06:56.330Z,43.40
2023-02-09T22:11:00.477Z,48.83
2023-02-09T22:15:03.600Z,52.30
2023-02-09T22:19:07.782Z,46.67
2023-02-09T22:23:10.614Z,47.60
2023-02-09T22:27:13.408Z,50.47
2023-02-09T22:31:19.188Z,48.10
2023-02-09T22:35:23.444Z,49.30
2023-02-09T22:39:26.302Z,52.17
2023-02-09T22:43:29.333Z,50.60
2023-02-09T22:47:32.564Z,51.43
2023-02-09T22:51:37.668Z,43.23
2023-02-09T22:55:40.586Z,45.27
2023-02-09T22:59:43.538Z,55.63
2023-02-09T23:03:46.488Z,57.30
2023-02-09T23:07:50.882Z,44.80
2023-02-09T23:11:53.789Z,41.47
2023-02-09T23:15:56.755Z,43.53
2023-02-09T23:19:59.620Z,40.90
2023-02-09T23:24:03.857Z,49.40
2023-02-09T23:28:06.747Z,48.10
2023-02-09T23:32:09.665Z,50.07
2023-02-09T23:36:14.898Z,47.63
2023-02-09T23:40:19.498Z,45.53
2023-02-09T23:44:22.318Z,43.47
2023-02-09T23:48:25.121Z,42.77
2023-02-09T23:52:27.933Z,39.87
2023-02-09T23:56:36.839Z,55.97
